createdAt,value
2019-05-02T00:00:17.501Z,0
2019-05-02T00:01:18.879Z,0
2019-05-02T00:02:23.970Z,0
2019-05-02T00:03:21.618Z,0
2019-05-02T00:04:23.006Z,0
2019-05-02T00:05:27.414Z,0
2019-05-02T00:06:25.738Z,0
2019-05-02T00:07:27.130Z,0
2019-05-02T00:08:29.332Z,0
2019-05-02T00:09:29.857Z,0
2019-05-02T00:10:31.238Z,0
2019-05-02T00:11:32.622Z,0
2019-05-02T00:12:34.011Z,0
2019-05-02T00:13:35.405Z,0
2019-05-02T00:14:36.793Z,0
2019-05-02T00:15:39.183Z,0
2019-05-02T00:16:39.539Z,0
2019-05-02T00:17:40.943Z,0
2019-05-02T00:18:42.329Z,0
2019-05-02T00:19:44.980Z,0
2019-05-02T00:20:45.096Z,0
2019-05-02T00:21:46.489Z,0
2019-05-02T00:22:51.815Z,0
2019-05-02T00:23:49.223Z,0
2019-05-02T00:24:50.628Z,0
2019-05-02T00:25:52.570Z,0
2019-05-02T00:26:56.221Z,0
2019-05-02T00:27:54.691Z,0
2019-05-02T00:28:56.086Z,0
2019-05-02T00:29:58.813Z,0
2019-05-02T00:30:58.812Z,0
2019-05-02T00:32:00.199Z,0
2019-05-02T00:33:01.591Z,0
2019-05-02T00:34:02.980Z,0
2019-05-02T00:35:04.367Z,0
2019-05-02T00:36:05.754Z,0
2019-05-02T00:37:07.138Z,0
2019-05-02T00:38:08.524Z,0
2019-05-02T00:39:13.667Z,0
2019-05-02T00:40:11.268Z,0
2019-05-02T00:41:12.655Z,0
2019-05-02T00:42:17.529Z,0
2019-05-02T00:43:15.384Z,0
2019-05-02T00:44:16.778Z,0
2019-05-02T00:45:18.601Z,0
2019-05-02T00:46:19.510Z,0
2019-05-02T00:47:20.889Z,0
2019-05-02T00:48:23.204Z,0
2019-05-02T00:49:23.649Z,0
2019-05-02T00:50:25.045Z,0
2019-05-02T00:51:26.907Z,0
2019-05-02T00:52:27.807Z,0
2019-05-02T00:53:29.183Z,0
2019-05-02T00:54:30.577Z,0
2019-05-02T00:55:33.877Z,0
2019-05-02T00:56:33.305Z,0
2019-05-02T00:57:34.697Z,0
2019-05-02T00:58:36.082Z,0
2019-05-02T00:59:37.830Z,0
2019-05-02T01:00:38.815Z,0
2019-05-02T01:01:40.206Z,0
2019-05-02T01:02:41.849Z,0
2019-05-02T01:03:47.156Z,0
2019-05-02T01:04:44.300Z,0
2019-05-02T01:05:45.696Z,0
2019-05-02T01:06:49.308Z,0
2019-05-02T01:07:48.419Z,0
2019-05-02T01:08:49.808Z,0
2019-05-02T01:09:51.196Z,0
2019-05-02T01:10:56.716Z,0
2019-05-02T01:11:53.933Z,0
2019-05-02T01:12:55.326Z,0
2019-05-02T01:13:57.749Z,0
2019-05-02T01:14:58.055Z,0
2019-05-02T01:15:59.445Z,0
2019-05-02T01:17:00.821Z,0
2019-05-02T01:18:06.073Z,0
2019-05-02T01:19:03.592Z,0
2019-05-02T01:20:04.991Z,0
2019-05-02T01:21:06.377Z,0
2019-05-02T01:22:10.637Z,0
2019-05-02T01:23:09.115Z,0
2019-05-02T01:24:10.502Z,0
2019-05-02T01:25:15.766Z,0
2019-05-02T01:26:13.232Z,0
2019-05-02T01:27:14.613Z,0
2019-05-02T01:28:17.569Z,0
2019-05-02T01:29:17.342Z,0
2019-05-02T01:30:18.729Z,0
2019-05-02T01:31:20.298Z,0
2019-05-02T01:32:25.189Z,0
2019-05-02T01:33:22.847Z,0
2019-05-02T01:34:24.209Z,0
2019-05-02T01:35:27.057Z,0
2019-05-02T01:36:26.948Z,0
2019-05-02T01:37:28.338Z,0
2019-05-02T01:38:31.997Z,0
2019-05-02T01:39:31.072Z,0
2019-05-02T01:40:32.458Z,0
2019-05-02T01:41:33.851Z,0
2019-05-02T01:42:39.986Z,0
2019-05-02T01:43:36.583Z,0
2019-05-02T01:44:38.037Z,0
2019-05-02T01:45:41.829Z,0
2019-05-02T01:46:40.697Z,0
2019-05-02T01:47:42.085Z,0
2019-05-02T01:48:45.582Z,0
2019-05-02T01:49:44.819Z,0
2019-05-02T01:50:46.215Z,0
2019-05-02T01:51:49.192Z,0
2019-05-02T01:52:48.969Z,0
2019-05-02T01:53:50.361Z,0
2019-05-02T01:54:51.756Z,0
2019-05-02T01:55:57.758Z,0
2019-05-02T01:56:54.499Z,0
2019-05-02T01:57:55.888Z,0
2019-05-02T01:58:57.740Z,0
2019-05-02T01:59:58.612Z,0
2019-05-02T02:01:00.000Z,0
2019-05-02T02:02:01.388Z,0
2019-05-02T02:03:04.267Z,0
2019-05-02T02:04:04.116Z,0
2019-05-02T02:05:05.505Z,0
2019-05-02T02:06:08.274Z,0
2019-05-02T02:07:08.242Z,0
2019-05-02T02:08:09.625Z,0
2019-05-02T02:09:11.011Z,0
2019-05-02T02:10:14.977Z,0
2019-05-02T02:11:13.739Z,0
2019-05-02T02:12:15.137Z,0
2019-05-02T02:13:16.519Z,0
2019-05-02T02:14:18.783Z,0
2019-05-02T02:15:19.259Z,0
2019-05-02T02:16:20.641Z,0
2019-05-02T02:17:22.035Z,0
2019-05-02T02:18:27.591Z,0
2019-05-02T02:19:24.779Z,0
2019-05-02T02:20:26.168Z,0
2019-05-02T02:21:27.708Z,0
2019-05-02T02:22:28.899Z,0
2019-05-02T02:23:30.288Z,0
2019-05-02T02:24:31.674Z,0
2019-05-02T02:25:36.341Z,0
2019-05-02T02:26:34.422Z,0
2019-05-02T02:27:35.818Z,0
2019-05-02T02:28:37.208Z,0
2019-05-02T02:29:39.170Z,0
2019-05-02T02:30:39.963Z,0
2019-05-02T02:31:46.415Z,0
2019-05-02T02:32:42.714Z,0
2019-05-02T02:33:48.041Z,0
2019-05-02T02:34:45.453Z,0
2019-05-02T02:35:50.420Z,0
2019-05-02T02:36:48.181Z,0
2019-05-02T02:37:53.336Z,0
2019-05-02T02:38:50.906Z,0
2019-05-02T02:39:54.009Z,0
2019-05-02T02:40:53.636Z,0
2019-05-02T02:41:55.019Z,0
2019-05-02T02:42:56.414Z,0
2019-05-02T02:44:00.571Z,0
2019-05-02T02:44:59.157Z,0
2019-05-02T02:46:00.548Z,0
2019-05-02T02:47:01.922Z,0
2019-05-02T02:48:03.315Z,0
2019-05-02T02:49:04.695Z,0
2019-05-02T02:50:06.082Z,0
2019-05-02T02:51:07.464Z,0
2019-05-02T02:52:08.859Z,0
2019-05-02T02:53:10.243Z,0
2019-05-02T02:54:11.627Z,0
2019-05-02T02:55:16.018Z,0
2019-05-02T02:56:14.365Z,0
2019-05-02T02:57:25.848Z,0
2019-05-02T02:58:17.085Z,0
2019-05-02T02:59:19.504Z,0
2019-05-02T03:00:19.835Z,0
2019-05-02T03:01:28.353Z,0
2019-05-02T03:02:23.109Z,0
2019-05-02T03:03:27.954Z,0
2019-05-02T03:04:25.834Z,0
2019-05-02T03:05:27.848Z,0
2019-05-02T03:06:28.564Z,0
2019-05-02T03:07:29.961Z,0
2019-05-02T03:08:31.338Z,0
2019-05-02T03:09:32.725Z,0
2019-05-02T03:10:39.742Z,0
2019-05-02T03:11:35.460Z,0
2019-05-02T03:12:41.423Z,4
2019-05-02T03:13:51.427Z,4
2019-05-02T03:14:41.078Z,4
2019-05-02T03:15:40.912Z,0
2019-05-02T03:16:47.089Z,4
2019-05-02T03:17:43.648Z,4
2019-05-02T03:18:45.029Z,4
2019-05-02T03:19:46.422Z,4
2019-05-02T03:20:47.811Z,4
2019-05-02T03:21:54.633Z,8
2019-05-02T03:22:50.550Z,8
2019-05-02T03:24:01.615Z,8
2019-05-02T03:24:53.289Z,8
2019-05-02T03:25:54.677Z,12
2019-05-02T03:26:57.934Z,16
2019-05-02T03:27:57.429Z,16
2019-05-02T03:29:00.634Z,16
2019-05-02T03:30:00.201Z,20
2019-05-02T03:31:20.887Z,20
2019-05-02T03:32:14.292Z,20
2019-05-02T03:33:09.678Z,24
2019-05-02T03:34:05.624Z,24
2019-05-02T03:35:07.029Z,24
2019-05-02T03:36:26.857Z,28
2019-05-02T03:37:10.937Z,28
2019-05-02T03:38:11.130Z,32
2019-05-02T03:39:15.409Z,40
2019-05-02T03:40:13.860Z,32
2019-05-02T03:41:20.808Z,36
2019-05-02T03:42:16.593Z,44
2019-05-02T03:43:19.217Z,44
2019-05-02T03:45:20.678Z,48
2019-05-02T03:46:22.746Z,56
2019-05-02T03:47:23.411Z,60
2019-05-02T03:48:25.906Z,64
2019-05-02T03:49:26.144Z,56
2019-05-02T03:50:32.873Z,60
2019-05-02T03:51:28.886Z,72
2019-05-02T03:52:30.278Z,80
2019-05-02T03:53:31.661Z,100
2019-05-02T03:54:33.076Z,100
2019-05-02T03:55:34.441Z,92
2019-05-02T03:56:35.837Z,112
2019-05-02T03:57:41.436Z,124
2019-05-02T03:58:38.615Z,120
2019-05-02T03:59:41.876Z,128
2019-05-02T04:00:41.363Z,148
2019-05-02T04:01:43.177Z,156
2019-05-02T04:02:44.116Z,148
2019-05-02T04:03:45.496Z,156
2019-05-02T04:04:46.892Z,156
2019-05-02T04:05:48.288Z,156
2019-05-02T04:06:54.881Z,180
2019-05-02T04:07:51.019Z,168
2019-05-02T04:08:58.853Z,168
2019-05-02T04:09:53.775Z,176
2019-05-02T04:10:59.347Z,180
2019-05-02T04:11:56.524Z,172
2019-05-02T04:12:58.463Z,172
2019-05-02T04:13:59.270Z,172
2019-05-02T04:15:00.665Z,180
2019-05-02T04:16:02.058Z,188
2019-05-02T04:17:03.461Z,216
2019-05-02T04:18:08.534Z,240
2019-05-02T04:19:06.211Z,248
2019-05-02T04:20:09.420Z,240
2019-05-02T04:21:08.942Z,248
2019-05-02T04:22:12.050Z,244
2019-05-02T04:23:11.676Z,236
2019-05-02T04:24:15.639Z,224
2019-05-02T04:25:14.425Z,224
2019-05-02T04:26:15.817Z,220
2019-05-02T04:27:17.210Z,232
2019-05-02T04:28:18.600Z,220
2019-05-02T04:29:24.453Z,228
2019-05-02T04:30:21.341Z,244
2019-05-02T04:31:24.951Z,260
2019-05-02T04:32:24.088Z,268
2019-05-02T04:33:29.083Z,300
2019-05-02T04:34:26.886Z,300
2019-05-02T04:35:28.713Z,312
2019-05-02T04:36:29.626Z,340
2019-05-02T04:37:34.335Z,340
2019-05-02T04:38:46.561Z,340
2019-05-02T04:39:33.719Z,348
2019-05-02T04:40:40.440Z,364
2019-05-02T04:41:39.281Z,372
2019-05-02T04:42:39.332Z,396
2019-05-02T04:43:40.694Z,388
2019-05-02T04:44:59.799Z,328
2019-05-02T04:45:55.307Z,356
2019-05-02T04:46:43.238Z,388
2019-05-02T04:47:54.553Z,424
2019-05-02T04:48:52.006Z,420
2019-05-02T04:49:49.083Z,420
2019-05-02T04:50:51.721Z,440
2019-05-02T04:52:00.152Z,456
2019-05-02T04:52:53.731Z,444
2019-05-02T04:53:52.788Z,452
2019-05-02T04:55:08.366Z,464
2019-05-02T04:56:01.610Z,432
2019-05-02T04:56:58.979Z,416
2019-05-02T04:58:01.456Z,460
2019-05-02T04:59:01.961Z,508
2019-05-02T05:00:06.539Z,504
2019-05-02T05:01:02.301Z,464
2019-05-02T05:02:03.694Z,468
2019-05-02T05:03:07.267Z,496
2019-05-02T05:04:08.159Z,496
2019-05-02T05:05:08.196Z,476
2019-05-02T05:06:12.262Z,428
2019-05-02T05:07:10.502Z,432
2019-05-02T05:08:16.814Z,436
2019-05-02T05:09:14.789Z,468
2019-05-02T05:10:14.588Z,464
2019-05-02T05:11:21.287Z,472
2019-05-02T05:12:17.641Z,436
2019-05-02T05:13:22.726Z,472
2019-05-02T05:14:20.036Z,464
2019-05-02T05:15:35.892Z,532
2019-05-02T05:16:22.780Z,492
2019-05-02T05:17:25.119Z,568
2019-05-02T05:18:27.278Z,600
2019-05-02T05:19:31.007Z,584
2019-05-02T05:20:28.220Z,596
2019-05-02T05:21:29.608Z,592
2019-05-02T05:22:30.994Z,564
2019-05-02T05:23:32.391Z,580
2019-05-02T05:24:39.802Z,508
2019-05-02T05:25:35.127Z,580
2019-05-02T05:26:39.104Z,640
2019-05-02T05:27:37.873Z,616
2019-05-02T05:28:42.662Z,648
2019-05-02T05:29:40.621Z,620
2019-05-02T05:30:45.026Z,592
2019-05-02T05:31:43.359Z,664
2019-05-02T05:32:44.756Z,696
2019-05-02T05:33:47.779Z,680
2019-05-02T05:34:47.842Z,616
2019-05-02T05:35:52.423Z,620
2019-05-02T05:36:50.219Z,588
2019-05-02T05:37:53.048Z,612
2019-05-02T05:38:52.969Z,648
2019-05-02T05:39:54.353Z,704
2019-05-02T05:40:57.950Z,660
2019-05-02T05:41:57.860Z,632
2019-05-02T05:43:02.621Z,652
2019-05-02T05:43:59.812Z,648
2019-05-02T05:45:03.692Z,612
2019-05-02T05:46:10.659Z,644
2019-05-02T05:47:03.904Z,672
2019-05-02T05:48:05.298Z,652
2019-05-02T05:49:10.527Z,684
2019-05-02T05:50:08.251Z,644
2019-05-02T05:51:11.848Z,660
2019-05-02T05:52:10.747Z,712
2019-05-02T05:53:15.142Z,700
2019-05-02T05:54:13.508Z,704
2019-05-02T05:55:20.378Z,736
2019-05-02T05:56:17.824Z,880
2019-05-02T05:57:20.951Z,796
2019-05-02T05:58:18.971Z,708
2019-05-02T05:59:22.211Z,740
2019-05-02T06:00:23.146Z,816
2019-05-02T06:01:25.888Z,960
2019-05-02T06:02:24.436Z,972
2019-05-02T06:03:27.719Z,1016
2019-05-02T06:04:32.738Z,1028
2019-05-02T06:05:33.070Z,956
2019-05-02T06:06:29.879Z,816
2019-05-02T06:07:33.685Z,788
2019-05-02T06:08:32.629Z,788
2019-05-02T06:09:34.018Z,832
2019-05-02T06:10:39.031Z,852
2019-05-02T06:11:36.771Z,900
2019-05-02T06:12:38.162Z,920
2019-05-02T06:13:42.972Z,1028
2019-05-02T06:14:40.915Z,1020
2019-05-02T06:15:42.300Z,980
2019-05-02T06:16:46.526Z,952
2019-05-02T06:17:45.058Z,1036
2019-05-02T06:18:46.453Z,1048
2019-05-02T06:19:48.275Z,972
2019-05-02T06:20:49.199Z,916
2019-05-02T06:21:50.593Z,988
2019-05-02T06:22:54.945Z,932
2019-05-02T06:23:53.338Z,832
2019-05-02T06:24:54.743Z,896
2019-05-02T06:25:56.139Z,892
2019-05-02T06:26:57.536Z,896
2019-05-02T06:28:00.293Z,876
2019-05-02T06:29:00.275Z,832
2019-05-02T06:30:01.663Z,892
2019-05-02T06:31:07.367Z,900
2019-05-02T06:32:04.408Z,920
2019-05-02T06:33:05.806Z,1048
2019-05-02T06:34:08.278Z,1084
2019-05-02T06:35:08.541Z,996
2019-05-02T06:36:09.927Z,972
2019-05-02T06:37:13.547Z,1232
2019-05-02T06:38:12.680Z,1268
2019-05-02T06:39:14.085Z,1076
2019-05-02T06:40:15.472Z,1104
2019-05-02T06:41:20.921Z,1140
2019-05-02T06:42:18.224Z,1156
2019-05-02T06:43:19.622Z,1320
2019-05-02T06:44:24.111Z,1160
2019-05-02T06:45:22.366Z,1032
2019-05-02T06:46:27.789Z,1208
2019-05-02T06:47:25.110Z,1148
2019-05-02T06:48:26.518Z,2020
2019-05-02T06:49:27.912Z,1844
2019-05-02T06:50:33.435Z,1360
2019-05-02T06:51:30.661Z,1596
2019-05-02T06:52:32.685Z,1364
2019-05-02T06:53:35.070Z,1352
2019-05-02T06:54:34.775Z,1460
2019-05-02T06:55:38.572Z,1424
2019-05-02T06:56:37.527Z,1620
2019-05-02T06:57:38.919Z,1480
2019-05-02T06:58:41.864Z,1588
2019-05-02T06:59:41.667Z,1476
2019-05-02T07:00:56.874Z,1512
2019-05-02T07:01:44.411Z,1468
2019-05-02T07:02:45.803Z,1328
2019-05-02T07:03:47.592Z,1572
2019-05-02T07:04:48.549Z,1496
2019-05-02T07:05:49.959Z,1588
2019-05-02T07:06:58.827Z,1336
2019-05-02T07:07:52.915Z,1308
2019-05-02T07:08:54.076Z,1396
2019-05-02T07:09:55.462Z,1584
2019-05-02T07:11:01.426Z,1412
2019-05-02T07:12:01.240Z,1304
2019-05-02T07:13:10.004Z,1460
2019-05-02T07:14:12.402Z,1924
2019-05-02T07:15:03.777Z,1944
2019-05-02T07:16:03.632Z,2184
2019-05-02T07:17:05.824Z,2616
2019-05-02T07:18:10.698Z,2556
2019-05-02T07:19:07.731Z,2248
2019-05-02T07:20:09.125Z,2276
2019-05-02T07:21:12.127Z,1972
2019-05-02T07:22:11.872Z,1732
2019-05-02T07:23:16.193Z,1740
2019-05-02T07:24:14.607Z,2572
2019-05-02T07:25:16.007Z,2248
2019-05-02T07:26:21.069Z,2080
2019-05-02T07:27:18.747Z,1904
2019-05-02T07:28:20.143Z,1896
2019-05-02T07:29:21.792Z,1928
2019-05-02T07:30:22.873Z,1544
2019-05-02T07:31:24.269Z,1832
2019-05-02T07:32:26.764Z,1952
2019-05-02T07:33:27.077Z,2368
2019-05-02T07:34:28.524Z,1860
2019-05-02T07:35:29.932Z,1796
2019-05-02T07:36:35.930Z,1988
2019-05-02T07:37:32.694Z,2236
2019-05-02T07:38:34.097Z,2720
2019-05-02T07:39:36.172Z,2608
2019-05-02T07:40:37.065Z,2172
2019-05-02T07:41:38.459Z,1864
2019-05-02T07:42:41.773Z,1900
2019-05-02T07:43:41.206Z,2080
2019-05-02T07:44:42.611Z,2708
2019-05-02T07:45:45.430Z,3516
2019-05-02T07:46:51.681Z,3256
2019-05-02T07:47:46.713Z,3300
2019-05-02T07:48:49.054Z,3800
2019-05-02T07:49:49.458Z,3328
2019-05-02T07:50:51.125Z,2768
2019-05-02T07:51:57.265Z,2700
2019-05-02T07:52:53.733Z,2792
2019-05-02T07:53:55.650Z,2812
2019-05-02T07:55:00.862Z,2644
2019-05-02T07:55:57.877Z,2572
2019-05-02T07:57:02.020Z,2512
2019-05-02T07:58:01.954Z,2284
2019-05-02T07:59:01.997Z,2324
2019-05-02T08:00:03.388Z,2660
2019-05-02T08:01:08.033Z,2896
2019-05-02T08:02:06.129Z,3124
2019-05-02T08:03:07.519Z,3116
2019-05-02T08:04:11.308Z,2856
2019-05-02T08:05:10.288Z,2916
2019-05-02T08:06:11.688Z,2920
2019-05-02T08:07:16.366Z,2604
2019-05-02T08:08:14.442Z,2800
2019-05-02T08:09:15.840Z,3672
2019-05-02T08:10:22.185Z,3052
2019-05-02T08:11:18.651Z,3144
2019-05-02T08:12:20.051Z,3080
2019-05-02T08:13:21.494Z,3352
2019-05-02T08:14:22.905Z,3028
2019-05-02T08:15:24.595Z,3856
2019-05-02T08:16:27.349Z,4372
2019-05-02T08:17:27.009Z,6496
2019-05-02T08:18:30.374Z,3444
2019-05-02T08:19:29.752Z,3136
2019-05-02T08:20:31.147Z,3528
2019-05-02T08:21:33.906Z,3476
2019-05-02T08:22:33.901Z,4108
2019-05-02T08:23:35.293Z,3744
2019-05-02T08:24:37.923Z,2864
2019-05-02T08:25:41.466Z,4528
2019-05-02T08:26:39.447Z,3328
2019-05-02T08:27:40.883Z,3048
2019-05-02T08:28:42.273Z,2964
2019-05-02T08:29:43.705Z,3332
2019-05-02T08:30:45.093Z,3584
2019-05-02T08:31:46.494Z,3648
2019-05-02T08:32:47.894Z,2864
2019-05-02T08:33:49.280Z,3364
2019-05-02T08:34:51.669Z,3864
2019-05-02T08:35:52.044Z,3524
2019-05-02T08:36:53.454Z,3160
2019-05-02T08:37:56.020Z,3156
2019-05-02T08:38:56.257Z,3252
2019-05-02T08:39:57.650Z,2832
2019-05-02T08:40:59.046Z,2552
2019-05-02T08:42:00.440Z,2604
2019-05-02T08:43:03.511Z,3992
2019-05-02T08:44:03.195Z,3252
2019-05-02T08:45:04.574Z,2820
2019-05-02T08:46:09.347Z,2780
2019-05-02T08:47:18.392Z,2440
2019-05-02T08:48:08.713Z,2760
2019-05-02T08:49:14.206Z,3084
2019-05-02T08:50:11.479Z,3332
2019-05-02T08:51:12.882Z,3224
2019-05-02T08:52:14.266Z,3144
2019-05-02T08:53:19.970Z,3472
2019-05-02T08:54:17.017Z,4396
2019-05-02T08:55:18.419Z,5216
2019-05-02T08:56:21.484Z,3792
2019-05-02T08:57:23.577Z,3688
2019-05-02T08:58:22.524Z,3192
2019-05-02T08:59:24.500Z,2664
2019-05-02T09:00:25.284Z,2572
2019-05-02T09:01:34.934Z,2748
2019-05-02T09:02:35.018Z,3504
2019-05-02T09:03:29.376Z,2912
2019-05-02T09:04:30.819Z,2720
2019-05-02T09:05:36.363Z,2780
2019-05-02T09:06:33.598Z,3432
2019-05-02T09:07:37.029Z,2852
2019-05-02T09:08:36.350Z,3948
2019-05-02T09:09:37.738Z,3788
2019-05-02T09:10:42.182Z,3964
2019-05-02T09:11:41.522Z,3288
2019-05-02T09:12:45.307Z,4608
2019-05-02T09:13:45.849Z,5596
2019-05-02T09:14:44.625Z,6556
2019-05-02T09:15:51.013Z,5572
2019-05-02T09:16:47.379Z,4900
2019-05-02T09:17:52.820Z,4132
2019-05-02T09:18:51.896Z,2984
2019-05-02T09:20:00.394Z,3512
2019-05-02T09:20:56.353Z,3644
2019-05-02T09:21:54.206Z,3820
2019-05-02T09:22:56.112Z,3596
2019-05-02T09:23:57.017Z,4452
2019-05-02T09:24:58.430Z,4592
2019-05-02T09:26:02.507Z,4920
2019-05-02T09:27:02.523Z,3540
2019-05-02T09:28:03.561Z,4004
2019-05-02T09:29:05.476Z,3972
2019-05-02T09:30:06.322Z,4444
2019-05-02T09:31:07.732Z,5260
2019-05-02T09:32:09.140Z,4632
2019-05-02T09:33:11.729Z,3424
2019-05-02T09:34:11.912Z,4408
2019-05-02T09:35:13.298Z,5856
2019-05-02T09:36:14.714Z,4848
2019-05-02T09:37:16.119Z,4432
2019-05-02T09:38:17.517Z,4248
2019-05-02T09:39:18.910Z,3840
2019-05-02T09:40:22.035Z,3652
2019-05-02T09:41:22.100Z,3964
2019-05-02T09:42:23.035Z,4072
2019-05-02T09:43:24.443Z,3232
2019-05-02T09:44:25.845Z,3644
2019-05-02T09:45:27.768Z,4268
2019-05-02T09:46:28.669Z,5072
2019-05-02T09:47:33.070Z,6920
2019-05-02T09:48:31.900Z,6660
2019-05-02T09:49:32.747Z,5344
2019-05-02T09:50:34.470Z,5612
2019-05-02T09:51:35.590Z,5908
2019-05-02T09:52:39.567Z,6084
2019-05-02T09:53:38.339Z,5248
2019-05-02T09:54:42.506Z,4168
2019-05-02T09:55:42.019Z,4356
2019-05-02T09:56:43.066Z,4104
2019-05-02T09:57:43.835Z,4936
2019-05-02T09:58:45.234Z,4432
2019-05-02T09:59:50.588Z,4536
2019-05-02T10:00:47.984Z,5004
2019-05-02T10:01:49.380Z,5756
2019-05-02T10:02:52.155Z,4812
2019-05-02T10:03:52.137Z,5480
2019-05-02T10:04:53.524Z,7352
2019-05-02T10:05:54.943Z,4936
2019-05-02T10:06:56.338Z,4796
2019-05-02T10:08:02.374Z,4184
2019-05-02T10:08:59.100Z,3860
2019-05-02T10:10:03.185Z,4008
2019-05-02T10:11:02.839Z,4036
2019-05-02T10:12:03.311Z,4368
2019-05-02T10:13:04.698Z,4752
2019-05-02T10:14:06.097Z,4528
2019-05-02T10:15:07.498Z,4624
2019-05-02T10:16:08.893Z,7060
2019-05-02T10:17:12.392Z,5164
2019-05-02T10:18:14.216Z,4408
2019-05-02T10:19:13.480Z,7116
2019-05-02T10:20:14.388Z,10084
2019-05-02T10:21:17.133Z,8644
2019-05-02T10:22:17.138Z,5876
2019-05-02T10:23:19.664Z,5172
2019-05-02T10:24:22.045Z,5568
2019-05-02T10:25:23.025Z,5052
2019-05-02T10:26:24.561Z,5704
2019-05-02T10:27:23.967Z,6104
2019-05-02T10:28:25.350Z,5928
2019-05-02T10:29:28.383Z,6824
2019-05-02T10:30:28.188Z,8880
2019-05-02T10:31:35.754Z,8288
2019-05-02T10:32:32.429Z,8200
2019-05-02T10:33:33.569Z,7644
2019-05-02T10:34:33.650Z,6768
2019-05-02T10:35:40.347Z,7552
2019-05-02T10:36:36.422Z,6580
2019-05-02T10:37:38.259Z,5128
2019-05-02T10:38:39.178Z,5268
2019-05-02T10:39:42.299Z,4436
2019-05-02T10:40:42.463Z,4004
2019-05-02T10:41:43.756Z,3960
2019-05-02T10:42:44.658Z,3836
2019-05-02T10:43:47.005Z,7976
2019-05-02T10:44:47.412Z,7368
2019-05-02T10:45:52.802Z,6528
2019-05-02T10:46:52.176Z,6716
2019-05-02T10:47:52.706Z,8432
2019-05-02T10:48:52.918Z,6708
2019-05-02T10:49:54.321Z,5460
2019-05-02T10:50:55.719Z,8084
2019-05-02T10:51:57.122Z,6772
2019-05-02T10:52:58.531Z,5020
2019-05-02T10:53:59.924Z,4632
2019-05-02T10:55:02.665Z,13928
2019-05-02T10:56:02.735Z,8960
2019-05-02T10:57:04.079Z,8792
2019-05-02T10:58:05.478Z,7288
2019-05-02T10:59:06.886Z,6000
2019-05-02T11:00:08.278Z,19904
2019-05-02T11:01:09.680Z,9356
2019-05-02T11:02:12.771Z,6192
2019-05-02T11:03:12.443Z,6376
2019-05-02T11:04:13.842Z,12320
2019-05-02T11:05:17.019Z,7332
2019-05-02T11:06:16.609Z,5888
2019-05-02T11:07:22.716Z,6980
2019-05-02T11:08:19.373Z,5272
2019-05-02T11:09:22.538Z,5340
2019-05-02T11:10:22.157Z,9972
2019-05-02T11:11:23.549Z,7888
2019-05-02T11:12:25.686Z,5700
2019-05-02T11:13:26.307Z,6992
2019-05-02T11:14:27.703Z,7740
2019-05-02T11:15:29.097Z,7156
2019-05-02T11:16:32.026Z,5452
2019-05-02T11:17:32.338Z,6364
2019-05-02T11:18:42.002Z,5728
2019-05-02T11:19:34.573Z,5052
2019-05-02T11:20:35.988Z,5988
2019-05-02T11:21:37.407Z,9480
2019-05-02T11:22:38.811Z,7936
2019-05-02T11:23:41.892Z,6712
2019-05-02T11:24:41.809Z,8928
2019-05-02T11:25:42.931Z,6376
2019-05-02T11:26:44.329Z,7376
2019-05-02T11:27:45.728Z,6696
2019-05-02T11:28:47.136Z,42240
2019-05-02T11:29:48.534Z,8896
2019-05-02T11:30:49.942Z,6924
2019-05-02T11:31:52.116Z,5772
2019-05-02T11:32:52.700Z,6172
2019-05-02T11:33:54.155Z,6136
2019-05-02T11:34:55.466Z,7344
2019-05-02T11:35:56.870Z,7576
2019-05-02T11:36:58.271Z,5812
2019-05-02T11:37:59.672Z,35520
2019-05-02T11:39:09.961Z,7568
2019-05-02T11:40:05.528Z,6588
2019-05-02T11:41:03.798Z,5548
2019-05-02T11:42:05.199Z,7360
2019-05-02T11:43:06.904Z,7364
2019-05-02T11:44:07.960Z,6404
2019-05-02T11:45:09.359Z,6992
2019-05-02T11:46:12.040Z,9880
2019-05-02T11:47:12.619Z,7060
2019-05-02T11:48:14.000Z,5356
2019-05-02T11:49:14.843Z,4636
2019-05-02T11:50:16.244Z,5996
2019-05-02T11:51:17.647Z,8320
2019-05-02T11:52:19.051Z,9800
2019-05-02T11:53:28.476Z,6112
2019-05-02T11:54:22.710Z,5148
2019-05-02T11:55:27.344Z,6940
2019-05-02T11:56:24.716Z,5336
2019-05-02T11:57:28.477Z,5220
2019-05-02T11:58:27.471Z,6596
2019-05-02T11:59:29.342Z,5868
2019-05-02T12:00:32.209Z,4488
2019-05-02T12:01:37.269Z,4888
2019-05-02T12:02:32.947Z,5188
2019-05-02T12:03:36.897Z,7356
2019-05-02T12:04:35.708Z,6824
2019-05-02T12:05:39.156Z,5180
2019-05-02T12:06:38.463Z,4284
2019-05-02T12:07:41.697Z,4812
2019-05-02T12:08:46.864Z,5172
2019-05-02T12:09:44.287Z,4120
2019-05-02T12:10:43.952Z,3868
2019-05-02T12:11:47.509Z,3324
2019-05-02T12:12:46.701Z,4700
2019-05-02T12:13:52.903Z,5164
2019-05-02T12:14:49.457Z,4308
2019-05-02T12:15:51.948Z,3700
2019-05-02T12:16:52.708Z,4008
2019-05-02T12:17:53.580Z,4504
2019-05-02T12:19:08.170Z,4228
2019-05-02T12:19:56.351Z,3964
2019-05-02T12:20:57.749Z,5232
2019-05-02T12:21:59.162Z,10020
2019-05-02T12:23:01.971Z,9148
2019-05-02T12:24:02.246Z,6404
2019-05-02T12:25:03.288Z,4868
2019-05-02T12:26:04.748Z,4496
2019-05-02T12:27:06.045Z,4260
2019-05-02T12:28:07.450Z,4584
2019-05-02T12:29:08.842Z,4404
2019-05-02T12:30:11.666Z,3628
2019-05-02T12:31:13.240Z,3944
2019-05-02T12:32:15.379Z,4396
2019-05-02T12:33:14.375Z,5372
2019-05-02T12:34:15.761Z,6772
2019-05-02T12:35:17.160Z,6304
2019-05-02T12:36:18.583Z,5720
2019-05-02T12:37:21.792Z,5056
2019-05-02T12:38:22.918Z,4396
2019-05-02T12:39:22.741Z,6144
2019-05-02T12:40:24.139Z,6836
2019-05-02T12:41:25.573Z,5880
2019-05-02T12:42:27.349Z,5128
2019-05-02T12:43:28.321Z,4320
2019-05-02T12:44:31.738Z,4328
2019-05-02T12:45:31.063Z,3968
2019-05-02T12:46:32.461Z,3660
2019-05-02T12:47:33.872Z,2564
2019-05-02T12:48:35.275Z,2116
2019-05-02T12:49:36.683Z,2196
2019-05-02T12:50:38.075Z,2536
2019-05-02T12:51:39.475Z,3600
2019-05-02T12:52:42.742Z,3508
2019-05-02T12:53:42.233Z,3296
2019-05-02T12:54:43.646Z,4008
2019-05-02T12:55:45.049Z,4384
2019-05-02T12:56:46.446Z,5028
2019-05-02T12:57:47.852Z,4828
2019-05-02T12:58:49.248Z,5432
2019-05-02T12:59:52.339Z,5868
2019-05-02T13:00:53.044Z,5712
2019-05-02T13:01:53.388Z,4408
2019-05-02T13:02:54.786Z,3696
2019-05-02T13:03:56.186Z,3476
2019-05-02T13:04:57.581Z,3448
2019-05-02T13:05:58.980Z,4128
2019-05-02T13:07:02.049Z,3528
2019-05-02T13:08:02.545Z,3348
2019-05-02T13:09:03.307Z,4468
2019-05-02T13:10:04.462Z,4348
2019-05-02T13:11:06.820Z,4256
2019-05-02T13:12:07.221Z,4088
2019-05-02T13:13:09.225Z,3260
2019-05-02T13:14:18.518Z,2848
2019-05-02T13:15:12.814Z,3584
2019-05-02T13:16:13.360Z,3368
2019-05-02T13:17:14.741Z,2712
2019-05-02T13:18:18.705Z,2336
2019-05-02T13:19:17.502Z,2268
2019-05-02T13:20:18.898Z,2032
2019-05-02T13:21:21.578Z,2192
2019-05-02T13:22:21.812Z,2188
2019-05-02T13:23:27.131Z,2520
2019-05-02T13:24:29.139Z,2436
2019-05-02T13:25:27.310Z,2528
2019-05-02T13:26:27.359Z,2680
2019-05-02T13:27:32.247Z,2720
2019-05-02T13:28:29.816Z,2812
2019-05-02T13:29:32.145Z,2732
2019-05-02T13:30:42.529Z,2148
2019-05-02T13:31:33.932Z,2228
2019-05-02T13:32:35.342Z,2252
2019-05-02T13:33:36.811Z,3048
2019-05-02T13:34:41.143Z,3732
2019-05-02T13:35:39.633Z,3368
2019-05-02T13:36:42.311Z,3544
2019-05-02T13:37:42.487Z,3052
2019-05-02T13:38:43.709Z,2752
2019-05-02T13:39:45.109Z,2744
2019-05-02T13:40:46.541Z,2556
2019-05-02T13:41:47.950Z,2412
2019-05-02T13:42:52.183Z,2368
2019-05-02T13:43:52.445Z,2752
2019-05-02T13:44:53.118Z,2760
2019-05-02T13:45:54.511Z,3328
2019-05-02T13:46:55.913Z,3296
2019-05-02T13:47:57.344Z,2880
2019-05-02T13:48:58.784Z,3492
2019-05-02T13:50:01.649Z,4140
2019-05-02T13:51:03.751Z,3640
2019-05-02T13:52:02.994Z,3196
2019-05-02T13:53:04.384Z,2556
2019-05-02T13:54:05.776Z,2804
2019-05-02T13:55:07.168Z,3344
2019-05-02T13:56:08.564Z,3668
2019-05-02T13:57:12.027Z,2944
2019-05-02T13:58:11.838Z,2948
2019-05-02T13:59:13.000Z,3696
2019-05-02T14:00:14.033Z,4628
2019-05-02T14:01:15.430Z,4372
2019-05-02T14:02:16.826Z,4452
2019-05-02T14:03:18.229Z,4816
2019-05-02T14:04:19.630Z,4652
2019-05-02T14:05:22.216Z,5044